sensor_id;sensor_type;location;lat;lon;timestamp;P1;durP1;ratioP1;P2;durP2;ratioP2
55350;SDS011;62194;49.480;10.986;2023-03-12T00:00:05;9.70;;;6.60;;
55350;SDS011;62194;49.480;10.986;2023-03-12T00:00:12;9.37;;;6.63;;
55350;SDS011;62194;49.480;10.986;2023-03-12T00:00:19;9.15;;;6.53;;
55350;SDS011;62194;49.480;10.986;2023-03-12T00:00:25;9.10;;;6.35;;
55350;SDS011;62194;49.480;10.986;2023-03-12T00:00:30;8.73;;;6.10;;
55350;SDS011;62194;49.480;10.986;2023-03-12T00:00:37;9.27;;;6.05;;
55350;SDS011;62194;49.480;10.986;2023-03-12T00:00:43;9.97;;;6.00;;
55350;SDS011;62194;49.480;10.986;2023-03-12T00:00:49;9.88;;;5.97;;
55350;SDS011;62194;49.480;10.986;2023-03-12T00:00:55;9.20;;;6.13;;
55350;SDS011;62194;49.480;10.986;2023-03-12T00:01:00;9.07;;;6.10;;
55350;SDS011;62194;49.480;10.986;2023-03-12T00:01:14;8.35;;;6.05;;
55350;SDS011;62194;49.480;10.986;2023-03-12T00:01:24;7.68;;;5.92;;
55350;SDS011;62194;49.480;10.986;2023-03-12T00:01:31;9.40;;;6.10;;
55350;SDS011;62194;49.480;10.986;2023-03-12T00:01:37;9.35;;;6.28;;
55350;SDS011;62194;49.480;10.986;2023-03-12T00:01:43;9.57;;;6.43;;
55350;SDS011;62194;49.480;10.986;2023-03-12T00:01:49;9.87;;;6.47;;
55350;SDS011;62194;49.480;10.986;2023-03-12T00:01:54;10.00;;;6.43;;
55350;SDS011;62194;49.480;10.986;2023-03-12T00:02:00;9.25;;;6.32;;
55350;SDS011;62194;49.480;10.986;2023-03-12T00:02:06;10.43;;;6.50;;
55350;SDS011;62194;49.480;10.986;2023-03-12T00:02:11;10.48;;;6.55;;
55350;SDS011;62194;49.480;10.986;2023-03-12T00:02:17;11.05;;;6.82;;
55350;SDS011;62194;49.480;10.986;2023-03-12T00:02:22;11.20;;;6.77;;
55350;SDS011;62194;49.480;10.986;2023-03-12T00:02:28;11.97;;;6.93;;
55350;SDS011;62194;49.480;10.986;2023-03-12T00:02:33;11.63;;;7.28;;
55350;SDS011;62194;49.480;10.986;2023-03-12T00:02:39;11.50;;;7.28;;
55350;SDS011;62194;49.480;10.986;2023-03-12T00:02:44;11.10;;;7.30;;
55350;SDS011;62194;49.480;10.986;2023-03-12T00:02:50;10.90;;;7.20;;
55350;SDS011;62194;49.480;10.986;2023-03-12T00:02:55;10.95;;;7.25;;
55350;SDS011;62194;49.480;10.986;2023-03-12T00:03:01;10.27;;;7.00;;
55350;SDS011;62194;49.480;10.986;2023-03-12T00:03:06;10.57;;;6.88;;
55350;SDS011;62194;49.480;10.986;2023-03-12T00:03:12;11.02;;;6.78;;
55350;SDS011;62194;49.480;10.986;2023-03-12T00:03:17;10.97;;;6.63;;
55350;SDS011;62194;49.480;10.986;2023-03-12T00:03:23;10.43;;;6.60;;
55350;SDS011;62194;49.480;10.986;2023-03-12T00:03:28;10.30;;;6.67;;
55350;SDS011;62194;49.480;10.986;2023-03-12T00:03:33;10.43;;;6.80;;
55350;SDS011;62194;49.480;10.986;2023-03-12T00:03:39;9.95;;;6.93;;
55350;SDS011;62194;49.480;10.986;2023-03-12T00:03:44;9.67;;;6.90;;
55350;SDS011;62194;49.480;10.986;2023-03-12T00:03:50;9.88;;;7.03;;
55350;SDS011;62194;49.480;10.986;2023-03-12T00:03:56;10.65;;;7.13;;
55350;SDS011;62194;49.480;10.986;2023-03-12T00:04:01;10.00;;;7.07;;
55350;SDS011;62194;49.480;10.986;2023-03-12T00:04:07;10.95;;;7.10;;
55350;SDS011;62194;49.480;10.986;2023-03-12T00:04:12;10.73;;;7.07;;
55350;SDS011;62194;49.480;10.986;2023-03-12T00:04:17;10.40;;;6.97;;
55350;SDS011;62194;49.480;10.986;2023-03-12T00:04:22;9.85;;;6.85;;
55350;SDS011;62194;49.480;10.986;2023-03-12T00:04:28;9.80;;;6.77;;
55350;SDS011;62194;49.480;10.986;2023-03-12T00:04:33;9.90;;;6.63;;
55350;SDS011;62194;49.480;10.986;2023-03-12T00:04:40;9.13;;;6.60;;
55350;SDS011;62194;49.480;10.986;2023-03-12T00:04:45;9.63;;;6.53;;
55350;SDS011;62194;49.480;10.986;2023-03-12T00:04:50;9.68;;;6.60;;
55350;SDS011;62194;49.480;10.986;2023-03-12T00:04:55;9.63;;;6.70;;
55350;SDS011;62194;49.480;10.986;2023-03-12T00:05:01;9.67;;;6.80;;
55350;SDS011;62194;49.480;10.986;2023-03-12T00:05:07;9.65;;;6.80;;
55350;SDS011;62194;49.480;10.986;2023-03-12T00:05:12;10.00;;;7.10;;
55350;SDS011;62194;49.480;10.986;2023-03-12T00:05:17;9.98;;;7.22;;
55350;SDS011;62194;49.480;10.986;2023-03-12T00:05:23;10.37;;;7.40;;
55350;SDS011;62194;49.480;10.986;2023-03-12T00:05:29;10.40;;;7.44;;
55350;SDS011;62194;49.480;10.986;2023-03-12T00:05:38;10.17;;;7.33;;
55350;SDS011;62194;49.480;10.986;2023-03-12T00:05:44;10.00;;;6.90;;
55350;SDS011;62194;49.480;10.986;2023-03-12T00:05:49;10.07;;;6.73;;
55350;SDS011;62194;49.480;10.986;2023-03-12T00:05:55;10.30;;;6.73;;
55350;SDS011;62194;49.480;10.986;2023-03-12T00:06:01;9.97;;;6.50;;
55350;SDS011;62194;49.480;10.986;2023-03-12T00:06:07;9.98;;;6.52;;
55350;SDS011;62194;49.480;10.986;2023-03-12T00:06:17;10.17;;;6.70;;
55350;SDS011;62194;49.480;10.986;2023-03-12T00:06:23;10.04;;;6.64;;
55350;SDS011;62194;49.480;10.986;2023-03-12T00:06:29;9.77;;;6.53;;
55350;SDS011;62194;49.480;10.986;2023-03-12T00:06:35;9.88;;;6.47;;
55350;SDS011;62194;49.480;10.986;2023-03-12T00:06:41;10.07;;;6.50;;
55350;SDS011;62194;49.480;10.986;2023-03-12T00:06:46;9.77;;;6.50;;
55350;SDS011;62194;49.480;10.986;2023-03-12T00:06:51;9.53;;;6.53;;
55350;SDS011;62194;49.480;10.986;2023-03-12T00:06:57;9.90;;;6.78;;
55350;SDS011;62194;49.480;10.986;2023-03-12T00:07:02;10.30;;;6.87;;
55350;SDS011;62194;49.480;10.986;2023-03-12T00:07:10;10.82;;;7.00;;
55350;SDS011;62194;49.480;10.986;2023-03-12T00:07:15;10.77;;;7.17;;
55350;SDS011;62194;49.480;10.986;2023-03-12T00:07:20;11.07;;;7.27;;
55350;SDS011;62194;49.480;10.986;2023-03-12T00:07:26;11.70;;;7.20;;
55350;SDS011;62194;49.480;10.986;2023-03-12T00:07:31;11.57;;;7.20;;
55350;SDS011;62194;49.480;10.986;2023-03-12T00:07:36;10.53;;;7.23;;
55350;SDS011;62194;49.480;10.986;2023-03-12T00:07:43;10.57;;;7.13;;
55350;SDS011;62194;49.480;10.986;2023-03-12T00:07:48;10.37;;;7.07;;
55350;SDS011;62194;49.480;10.986;2023-03-12T00:07:54;10.05;;;7.05;;
55350;SDS011;62194;49.480;10.986;2023-03-12T00:08:03;10.10;;;6.97;;
55350;SDS011;62194;49.480;10.986;2023-03-12T00:08:09;10.88;;;7.10;;
55350;SDS011;62194;49.480;10.986;2023-03-12T00:08:15;10.73;;;7.07;;
55350;SDS011;62194;49.480;10.986;2023-03-12T00:08:20;10.87;;;7.10;;
55350;SDS011;62194;49.480;10.986;2023-03-12T00:08:26;11.70;;;7.32;;
55350;SDS011;62194;49.480;10.986;2023-03-12T00:08:31;11.47;;;7.27;;
55350;SDS011;62194;49.480;10.986;2023-03-12T00:08:36;10.63;;;7.13;;
55350;SDS011;62194;49.480;10.986;2023-03-12T00:08:42;10.68;;;7.05;;
55350;SDS011;62194;49.480;10.986;2023-03-12T00:08:50;9.87;;;6.80;;
55350;SDS011;62194;49.480;10.986;2023-03-12T00:08:56;10.30;;;6.72;;
55350;SDS011;62194;49.480;10.986;2023-03-12T00:09:02;10.97;;;7.07;;
55350;SDS011;62194;49.480;10.986;2023-03-12T00:09:08;11.23;;;7.22;;
55350;SDS011;62194;49.480;10.986;2023-03-12T00:09:13;11.68;;;7.32;;
55350;SDS011;62194;49.480;10.986;2023-03-12T00:09:19;12.60;;;7.70;;
55350;SDS011;62194;49.480;10.986;2023-03-12T00:09:24;11.87;;;7.77;;
55350;SDS011;62194;49.480;10.986;2023-03-12T00:09:29;11.07;;;7.55;;
55350;SDS011;62194;49.480;10.986;2023-03-12T00:09:36;11.03;;;7.50;;
55350;SDS011;62194;49.480;10.986;2023-03-12T00:09:42;11.57;;;7.57;;
55350;SDS011;62194;49.480;10.986;2023-03-12T00:09:50;11.47;;;7.47;;
55350;SDS011;62194;49.480;10.986;2023-03-12T00:09:56;12.00;;;7.95;;
55350;SDS011;62194;49.480;10.986;2023-03-12T00:10:03;12.43;;;8.15;;
55350;SDS011;62194;49.480;10.986;2023-03-12T00:10:09;12.38;;;8.27;;
55350;SDS011;62194;49.480;10.986;2023-03-12T00:10:15;11.93;;;8.33;;
55350;SDS011;62194;49.480;10.986;2023-03-12T00:10:20;11.68;;;8.32;;
55350;SDS011;62194;49.480;10.986;2023-03-12T00:10:26;12.40;;;8.07;;
55350;SDS011;62194;49.480;10.986;2023-03-12T00:10:32;12.93;;;7.97;;
55350;SDS011;62194;49.480;10.986;2023-03-12T00:10:38;12.70;;;7.90;;
55350;SDS011;62194;49.480;10.986;2023-03-12T00:10:44;12.73;;;7.77;;
55350;SDS011;62194;49.480;10.986;2023-03-12T00:10:49;12.67;;;7.87;;
55350;SDS011;62194;49.480;10.986;2023-03-12T00:10:55;11.93;;;7.80;;
55350;SDS011;62194;49.480;10.986;2023-03-12T00:11:04;11.45;;;7.88;;
55350;SDS011;62194;49.480;10.986;2023-03-12T00:11:18;11.52;;;7.80;;
55350;SDS011;62194;49.480;10.986;2023-03-12T00:11:24;11.86;;;7.70;;
55350;SDS011;62194;49.480;10.986;2023-03-12T00:11:30;10.93;;;7.50;;
55350;SDS011;62194;49.480;10.986;2023-03-12T00:11:35;11.00;;;7.57;;
55350;SDS011;62194;49.480;10.986;2023-03-12T00:11:41;11.52;;;7.82;;
55350;SDS011;62194;49.480;10.986;2023-03-12T00:11:46;11.03;;;7.80;;
55350;SDS011;62194;49.480;10.986;2023-03-12T00:11:52;10.40;;;7.70;;
55350;SDS011;62194;49.480;10.986;2023-03-12T00:11:57;10.80;;;7.80;;
55350;SDS011;62194;49.480;10.986;2023-03-12T00:12:02;10.40;;;7.60;;
55350;SDS011;62194;49.480;10.986;2023-03-12T00:12:09;10.03;;;7.40;;
55350;SDS011;62194;49.480;10.986;2023-03-12T00:12:14;10.18;;;7.32;;
55350;SDS011;62194;49.480;10.986;2023-03-12T00:12:19;10.67;;;7.33;;
55350;SDS011;62194;49.480;10.986;2023-03-12T00:12:25;10.40;;;7.23;;
55350;SDS011;62194;49.480;10.986;2023-03-12T00:12:30;10.35;;;7.25;;
55350;SDS011;62194;49.480;10.986;2023-03-12T00:12:35;10.53;;;7.37;;
55350;SDS011;62194;49.480;10.986;2023-03-12T00:12:41;10.33;;;7.50;;
55350;SDS011;62194;49.480;10.986;2023-03-12T00:12:46;10.18;;;7.53;;
55350;SDS011;62194;49.480;10.986;2023-03-12T00:12:51;10.33;;;7.60;;
55350;SDS011;62194;49.480;10.986;2023-03-12T00:12:57;10.55;;;7.75;;
55350;SDS011;62194;49.480;10.986;2023-03-12T00:13:02;10.80;;;7.80;;
55350;SDS011;62194;49.480;10.986;2023-03-12T00:13:07;11.50;;;7.77;;
55350;SDS011;62194;49.480;10.986;2023-03-12T00:13:13;11.68;;;7.75;;
55350;SDS011;62194;49.480;10.986;2023-03-12T00:13:18;11.90;;;7.87;;
55350;SDS011;62194;49.480;10.986;2023-03-12T00:13:23;11.70;;;7.73;;
55350;SDS011;62194;49.480;10.986;2023-03-12T00:13:29;11.95;;;7.78;;
55350;SDS011;62194;49.480;10.986;2023-03-12T00:13:34;11.07;;;7.57;;
55350;SDS011;62194;49.480;10.986;2023-03-12T00:13:40;10.90;;;7.65;;
55350;SDS011;62194;49.480;10.986;2023-03-12T00:13:49;10.73;;;7.50;;
55350;SDS011;62194;49.480;10.986;2023-03-12T00:13:56;11.12;;;7.43;;
55350;SDS011;62194;49.480;10.986;2023-03-12T00:14:04;11.67;;;7.33;;
55350;SDS011;62194;49.480;10.986;2023-03-12T00:14:09;11.57;;;7.17;;
55350;SDS011;62194;49.480;10.986;2023-03-12T00:14:14;11.60;;;7.20;;
55350;SDS011;62194;49.480;10.986;2023-03-12T00:14:19;11.63;;;7.13;;
55350;SDS011;62194;49.480;10.986;2023-03-12T00:14:25;10.80;;;7.03;;
55350;SDS011;62194;49.480;10.986;2023-03-12T00:14:30;11.02;;;7.18;;
55350;SDS011;62194;49.480;10.986;2023-03-12T00:14:37;11.30;;;7.55;;
55350;SDS011;62194;49.480;10.986;2023-03-12T00:14:43;11.57;;;7.70;;
55350;SDS011;62194;49.480;10.986;2023-03-12T00:14:48;11.97;;;7.73;;
55350;SDS011;62194;49.480;10.986;2023-03-12T00:14:53;11.90;;;7.70;;
55350;SDS011;62194;49.480;10.986;2023-03-12T00:14:59;12.02;;;7.97;;
55350;SDS011;62194;49.480;10.986;2023-03-12T00:15:05;11.57;;;7.73;;
55350;SDS011;62194;49.480;10.986;2023-03-12T00:15:11;11.26;;;7.82;;
55350;SDS011;62194;49.480;10.986;2023-03-12T00:15:16;10.83;;;7.83;;
55350;SDS011;62194;49.480;10.986;2023-03-12T00:15:22;11.13;;;7.77;;
55350;SDS011;62194;49.480;10.986;2023-03-12T00:15:28;10.95;;;7.70;;
55350;SDS011;62194;49.480;10.986;2023-03-12T00:15:39;11.13;;;7.70;;
55350;SDS011;62194;49.480;10.986;2023-03-12T00:15:45;11.07;;;7.23;;
55350;SDS011;62194;49.480;10.986;2023-03-12T00:15:50;11.23;;;7.53;;
55350;SDS011;62194;49.480;10.986;2023-03-12T00:15:56;11.07;;;7.50;;
55350;SDS011;62194;49.480;10.986;2023-03-12T00:16:02;10.38;;;7.38;;
55350;SDS011;62194;49.480;10.986;2023-03-12T00:16:12;10.38;;;7.35;;
55350;SDS011;62194;49.480;10.986;2023-03-12T00:16:19;10.20;;;7.17;;
55350;SDS011;62194;49.480;10.986;2023-03-12T00:16:25;10.48;;;7.00;;
55350;SDS011;62194;49.480;10.986;2023-03-12T00:16:31;10.80;;;7.05;;
55350;SDS011;62194;49.480;10.986;2023-03-12T00:16:36;10.53;;;7.20;;
55350;SDS011;62194;49.480;10.986;2023-03-12T00:16:41;10.33;;;7.20;;
55350;SDS011;62194;49.480;10.986;2023-03-12T00:16:47;10.55;;;7.53;;
55350;SDS011;62194;49.480;10.986;2023-03-12T00:16:52;10.63;;;7.77;;
55350;SDS011;62194;49.480;10.986;2023-03-12T00:16:59;11.13;;;8.10;;
55350;SDS011;62194;49.480;10.986;2023-03-12T00:17:04;11.17;;;8.27;;
55350;SDS011;62194;49.480;10.986;2023-03-12T00:17:10;11.27;;;8.32;;
55350;SDS011;62194;49.480;10.986;2023-03-12T00:17:15;10.93;;;8.23;;
55350;SDS011;62194;49.480;10.986;2023-03-12T00:17:20;10.97;;;8.23;;
55350;SDS011;62194;49.480;10.986;2023-03-12T00:17:27;11.60;;;8.32;;
55350;SDS011;62194;49.480;10.986;2023-03-12T00:17:34;11.47;;;8.20;;
55350;SDS011;62194;49.480;10.986;2023-03-12T00:17:39;11.90;;;8.17;;
55350;SDS011;62194;49.480;10.986;2023-03-12T00:17:44;12.30;;;8.37;;
55350;SDS011;62194;49.480;10.986;2023-03-12T00:17:50;12.40;;;8.27;;
55350;SDS011;62194;49.480;10.986;2023-03-12T00:17:55;11.87;;;7.90;;
55350;SDS011;62194;49.480;10.986;2023-03-12T00:18:01;12.10;;;7.90;;
55350;SDS011;62194;49.480;10.986;2023-03-12T00:18:06;12.47;;;7.93;;
55350;SDS011;62194;49.480;10.986;2023-03-12T00:18:11;11.77;;;7.77;;
55350;SDS011;62194;49.480;10.986;2023-03-12T00:18:17;11.82;;;7.68;;
55350;SDS011;62194;49.480;10.986;2023-03-12T00:18:22;12.33;;;7.87;;
55350;SDS011;62194;49.480;10.986;2023-03-12T00:18:27;12.60;;;7.97;;
55350;SDS011;62194;49.480;10.986;2023-03-12T00:18:33;12.32;;;8.02;;
55350;SDS011;62194;49.480;10.986;2023-03-12T00:18:38;12.40;;;8.00;;
55350;SDS011;62194;49.480;10.986;2023-03-12T00:18:46;12.90;;;8.07;;
55350;SDS011;62194;49.480;10.986;2023-03-12T00:18:53;12.50;;;8.27;;
55350;SDS011;62194;49.480;10.986;2023-03-12T00:19:00;12.38;;;8.24;;
55350;SDS011;62194;49.480;10.986;2023-03-12T00:19:05;12.50;;;8.03;;
55350;SDS011;62194;49.480;10.986;2023-03-12T00:19:11;12.02;;;7.97;;
55350;SDS011;62194;49.480;10.986;2023-03-12T00:19:17;12.33;;;7.73;;
55350;SDS011;62194;49.480;10.986;2023-03-12T00:19:22;11.87;;;7.47;;
55350;SDS011;62194;49.480;10.986;2023-03-12T00:19:27;11.57;;;7.40;;
55350;SDS011;62194;49.480;10.986;2023-03-12T00:19:33;11.23;;;7.50;;
55350;SDS011;62194;49.480;10.986;2023-03-12T00:19:38;11.00;;;7.63;;
55350;SDS011;62194;49.480;10.986;2023-03-12T00:19:43;10.55;;;7.70;;
55350;SDS011;62194;49.480;10.986;2023-03-12T00:19:52;10.07;;;7.53;;
55350;SDS011;62194;49.480;10.986;2023-03-12T00:19:57;9.63;;;7.54;;
55350;SDS011;62194;49.480;10.986;2023-03-12T00:20:03;10.37;;;7.60;;
55350;SDS011;62194;49.480;10.986;2023-03-12T00:20:11;10.47;;;7.52;;
55350;SDS011;62194;49.480;10.986;2023-03-12T00:20:16;11.38;;;7.53;;
55350;SDS011;62194;49.480;10.986;2023-03-12T00:20:22;12.35;;;7.70;;
55350;SDS011;62194;49.480;10.986;2023-03-12T00:20:27;12.50;;;7.70;;
55350;SDS011;62194;49.480;10.986;2023-03-12T00:20:33;12.67;;;7.57;;
55350;SDS011;62194;49.480;10.986;2023-03-12T00:20:38;12.32;;;7.55;;
55350;SDS011;62194;49.480;10.986;2023-03-12T00:20:51;12.77;;;7.83;;
55350;SDS011;62194;49.480;10.986;2023-03-12T00:20:57;12.74;;;7.88;;
55350;SDS011;62194;49.480;10.986;2023-03-12T00:21:03;11.77;;;8.00;;
55350;SDS011;62194;49.480;10.986;2023-03-12T00:21:09;12.00;;;8.00;;
55350;SDS011;62194;49.480;10.986;2023-03-12T00:21:15;11.77;;;7.80;;
55350;SDS011;62194;49.480;10.986;2023-03-12T00:21:21;10.43;;;7.60;;
55350;SDS011;62194;49.480;10.986;2023-03-12T00:21:27;10.73;;;7.43;;
55350;SDS011;62194;49.480;10.986;2023-03-12T00:21:32;10.90;;;7.43;;
55350;SDS011;62194;49.480;10.986;2023-03-12T00:21:38;11.07;;;7.63;;
55350;SDS011;62194;49.480;10.986;2023-03-12T00:21:43;10.90;;;7.70;;
55350;SDS011;62194;49.480;10.986;2023-03-12T00:21:49;11.40;;;7.73;;
55350;SDS011;62194;49.480;10.986;2023-03-12T00:21:54;11.82;;;8.07;;
55350;SDS011;62194;49.480;10.986;2023-03-12T00:21:59;11.57;;;8.13;;
55350;SDS011;62194;49.480;10.986;2023-03-12T00:22:04;11.37;;;7.83;;
55350;SDS011;62194;49.480;10.986;2023-03-12T00:22:10;11.60;;;7.70;;
55350;SDS011;62194;49.480;10.986;2023-03-12T00:22:15;11.77;;;7.67;;
55350;SDS011;62194;49.480;10.986;2023-03-12T00:22:20;11.33;;;7.57;;
55350;SDS011;62194;49.480;10.986;2023-03-12T00:22:27;10.94;;;7.52;;
55350;SDS011;62194;49.480;10.986;2023-03-12T00:22:32;11.63;;;7.67;;
55350;SDS011;62194;49.480;10.986;2023-03-12T00:22:38;11.93;;;7.72;;
55350;SDS011;62194;49.480;10.986;2023-03-12T00:22:43;11.63;;;7.60;;
55350;SDS011;62194;49.480;10.986;2023-03-12T00:22:49;10.98;;;7.47;;
55350;SDS011;62194;49.480;10.986;2023-03-12T00:22:54;10.60;;;7.07;;
55350;SDS011;62194;49.480;10.986;2023-03-12T00:22:59;10.95;;;6.97;;
55350;SDS011;62194;49.480;10.986;2023-03-12T00:23:05;11.00;;;6.90;;
55350;SDS011;62194;49.480;10.986;2023-03-12T00:23:11;10.43;;;6.80;;
55350;SDS011;62194;49.480;10.986;2023-03-12T00:23:16;10.60;;;6.93;;
55350;SDS011;62194;49.480;10.986;2023-03-12T00:23:21;10.70;;;7.10;;
55350;SDS011;62194;49.480;10.986;2023-03-12T00:23:27;10.67;;;7.30;;
55350;SDS011;62194;49.480;10.986;2023-03-12T00:23:33;9.58;;;7.40;;
55350;SDS011;62194;49.480;10.986;2023-03-12T00:23:39;9.07;;;7.22;;
55350;SDS011;62194;49.480;10.986;2023-03-12T00:23:45;9.70;;;7.37;;
55350;SDS011;62194;49.480;10.986;2023-03-12T00:23:54;10.27;;;7.33;;
55350;SDS011;62194;49.480;10.986;2023-03-12T00:23:59;10.40;;;7.30;;
55350;SDS011;62194;49.480;10.986;2023-03-12T00:24:05;11.32;;;7.50;;
55350;SDS011;62194;49.480;10.986;2023-03-12T00:24:11;12.28;;;8.00;;
55350;SDS011;62194;49.480;10.986;2023-03-12T00:24:17;12.13;;;8.17;;
55350;SDS011;62194;49.480;10.986;2023-03-12T00:24:22;12.30;;;8.20;;
55350;SDS011;62194;49.480;10.986;2023-03-12T00:24:28;11.95;;;8.30;;
55350;SDS011;62194;49.480;10.986;2023-03-12T00:24:33;11.63;;;8.17;;
55350;SDS011;62194;49.480;10.986;2023-03-12T00:24:38;11.60;;;8.27;;
55350;SDS011;62194;49.480;10.986;2023-03-12T00:24:44;11.70;;;8.37;;
55350;SDS011;62194;49.480;10.986;2023-03-12T00:24:50;12.10;;;8.47;;
55350;SDS011;62194;49.480;10.986;2023-03-12T00:24:56;12.40;;;8.53;;
55350;SDS011;62194;49.480;10.986;2023-03-12T00:25:01;12.33;;;8.60;;
55350;SDS011;62194;49.480;10.986;2023-03-12T00:25:11;11.63;;;8.53;;
55350;SDS011;62194;49.480;10.986;2023-03-12T00:25:19;10.39;;;7.95;;
55350;SDS011;62194;49.480;10.986;2023-03-12T00:25:25;9.80;;;7.73;;
55350;SDS011;62194;49.480;10.986;2023-03-12T00:25:30;10.27;;;7.82;;
55350;SDS011;62194;49.480;10.986;2023-03-12T00:25:35;10.63;;;8.00;;
55350;SDS011;62194;49.480;10.986;2023-03-12T00:25:41;10.63;;;7.90;;
55350;SDS011;62194;49.480;10.986;2023-03-12T00:25:46;11.98;;;8.10;;
55350;SDS011;62194;49.480;10.986;2023-03-12T00:25:51;13.50;;;8.33;;
55350;SDS011;62194;49.480;10.986;2023-03-12T00:26:00;14.83;;;8.60;;
55350;SDS011;62194;49.480;10.986;2023-03-12T00:26:11;14.93;;;8.80;;
55350;SDS011;62194;49.480;10.986;2023-03-12T00:26:18;14.72;;;9.26;;
55350;SDS011;62194;49.480;10.986;2023-03-12T00:26:25;12.93;;;9.05;;
55350;SDS011;62194;49.480;10.986;2023-03-12T00:26:30;13.17;;;9.20;;
55350;SDS011;62194;49.480;10.986;2023-03-12T00:26:35;13.23;;;9.00;;
55350;SDS011;62194;49.480;10.986;2023-03-12T00:26:41;13.07;;;9.02;;
55350;SDS011;62194;49.480;10.986;2023-03-12T00:26:47;13.43;;;8.88;;
55350;SDS011;62194;49.480;10.986;2023-03-12T00:26:52;14.37;;;9.00;;
55350;SDS011;62194;49.480;10.986;2023-03-12T00:26:57;14.13;;;8.97;;
55350;SDS011;62194;49.480;10.986;2023-03-12T00:27:03;13.52;;;8.60;;
55350;SDS011;62194;49.480;10.986;2023-03-12T00:27:08;14.33;;;8.73;;
55350;SDS011;62194;49.480;10.986;2023-03-12T00:27:13;14.17;;;8.83;;
55350;SDS011;62194;49.480;10.986;2023-03-12T00:27:18;13.87;;;8.93;;
55350;SDS011;62194;49.480;10.986;2023-03-12T00:27:24;13.82;;;9.02;;
55350;SDS011;62194;49.480;10.986;2023-03-12T00:27:30;15.23;;;9.43;;
55350;SDS011;62194;49.480;10.986;2023-03-12T00:27:35;14.55;;;9.48;;
55350;SDS011;62194;49.480;10.986;2023-03-12T00:27:41;15.13;;;9.57;;
55350;SDS011;62194;49.480;10.986;2023-03-12T00:27:47;15.80;;;9.67;;
55350;SDS011;62194;49.480;10.986;2023-03-12T00:27:52;14.88;;;9.50;;
55350;SDS011;62194;49.480;10.986;2023-03-12T00:27:58;13.80;;;9.40;;
55350;SDS011;62194;49.480;10.986;2023-03-12T00:28:03;13.93;;;9.67;;
55350;SDS011;62194;49.480;10.986;2023-03-12T00:28:08;13.32;;;9.80;;
55350;SDS011;62194;49.480;10.986;2023-03-12T00:28:14;12.87;;;9.67;;
55350;SDS011;62194;49.480;10.986;2023-03-12T00:28:19;12.63;;;9.63;;
55350;SDS011;62194;49.480;10.986;2023-03-12T00:28:24;13.00;;;9.65;;
55350;SDS011;62194;49.480;10.986;2023-03-12T00:28:30;13.23;;;9.57;;
55350;SDS011;62194;49.480;10.986;2023-03-12T00:28:36;13.38;;;9.40;;
55350;SDS011;62194;49.480;10.986;2023-03-12T00:28:42;13.77;;;9.37;;
55350;SDS011;62194;49.480;10.986;2023-03-12T00:28:47;13.87;;;9.37;;
55350;SDS011;62194;49.480;10.986;2023-03-12T00:28:54;13.63;;;9.27;;
55350;SDS011;62194;49.480;10.986;2023-03-12T00:28:59;13.17;;;9.17;;
55350;SDS011;62194;49.480;10.986;2023-03-12T00:29:04;12.77;;;9.02;;
55350;SDS011;62194;49.480;10.986;2023-03-12T00:29:10;12.13;;;8.93;;
55350;SDS011;62194;49.480;10.986;2023-03-12T00:29:15;12.52;;;9.00;;
55350;SDS011;62194;49.480;10.986;2023-03-12T00:29:21;12.73;;;9.07;;
55350;SDS011;62194;49.480;10.986;2023-03-12T00:29:26;12.93;;;9.00;;
55350;SDS011;62194;49.480;10.986;2023-03-12T00:29:31;13.40;;;9.18;;
55350;SDS011;62194;49.480;10.986;2023-03-12T00:29:36;13.50;;;9.27;;
55350;SDS011;62194;49.480;10.986;2023-03-12T00:29:42;13.23;;;9.13;;
55350;SDS011;62194;49.480;10.986;2023-03-12T00:29:47;12.20;;;8.85;;
55350;SDS011;62194;49.480;10.986;2023-03-12T00:29:53;11.67;;;8.87;;
55350;SDS011;62194;49.480;10.986;2023-03-12T00:29:58;11.13;;;8.85;;
55350;SDS011;62194;49.480;10.986;2023-03-12T00:30:04;10.43;;;8.43;;
55350;SDS011;62194;49.480;10.986;2023-03-12T00:30:10;10.93;;;8.48;;
55350;SDS011;62194;49.480;10.986;2023-03-12T00:30:16;11.95;;;8.52;;
55350;SDS011;62194;49.480;10.986;2023-03-12T00:30:21;12.80;;;8.68;;
55350;SDS011;62194;49.480;10.986;2023-03-12T00:30:26;13.00;;;8.73;;
55350;SDS011;62194;49.480;10.986;2023-03-12T00:30:33;13.06;;;8.72;;
55350;SDS011;62194;49.480;10.986;2023-03-12T00:30:38;12.67;;;8.53;;
55350;SDS011;62194;49.480;10.986;2023-03-12T00:30:44;12.75;;;8.35;;
55350;SDS011;62194;49.480;10.986;2023-03-12T00:30:49;13.13;;;8.47;;
55350;SDS011;62194;49.480;10.986;2023-03-12T00:30:57;13.35;;;8.45;;
55350;SDS011;62194;49.480;10.986;2023-03-12T00:31:03;13.40;;;8.43;;
55350;SDS011;62194;49.480;10.986;2023-03-12T00:31:36;12.81;;;8.44;;
55350;SDS011;62194;49.480;10.986;2023-03-12T00:31:42;11.80;;;8.37;;
55350;SDS011;62194;49.480;10.986;2023-03-12T00:31:47;11.32;;;8.50;;
55350;SDS011;62194;49.480;10.986;2023-03-12T00:31:52;11.27;;;8.33;;
55350;SDS011;62194;49.480;10.986;2023-03-12T00:31:58;11.10;;;8.13;;
55350;SDS011;62194;49.480;10.986;2023-03-12T00:32:03;10.73;;;7.87;;
55350;SDS011;62194;49.480;10.986;2023-03-12T00:32:09;11.13;;;8.18;;
55350;SDS011;62194;49.480;10.986;2023-03-12T00:32:14;11.87;;;8.30;;
55350;SDS011;62194;49.480;10.986;2023-03-12T00:32:20;11.77;;;8.23;;
55350;SDS011;62194;49.480;10.986;2023-03-12T00:32:25;11.33;;;8.17;;
55350;SDS011;62194;49.480;10.986;2023-03-12T00:32:33;11.70;;;8.37;;
55350;SDS011;62194;49.480;10.986;2023-03-12T00:32:39;11.89;;;8.51;;
55350;SDS011;62194;49.480;10.986;2023-03-12T00:32:44;11.27;;;8.40;;
55350;SDS011;62194;49.480;10.986;2023-03-12T00:32:50;11.70;;;8.65;;
55350;SDS011;62194;49.480;10.986;2023-03-12T00:32:55;12.43;;;8.80;;
55350;SDS011;62194;49.480;10.986;2023-03-12T00:33:00;12.40;;;8.83;;
55350;SDS011;62194;49.480;10.986;2023-03-12T00:33:05;12.90;;;8.73;;
55350;SDS011;62194;49.480;10.986;2023-03-12T00:33:11;13.23;;;8.63;;
55350;SDS011;62194;49.480;10.986;2023-03-12T00:33:16;13.68;;;8.50;;
55350;SDS011;62194;49.480;10.986;2023-03-12T00:33:22;13.57;;;8.30;;
55350;SDS011;62194;49.480;10.986;2023-03-12T00:33:27;13.00;;;8.27;;
55350;SDS011;62194;49.480;10.986;2023-03-12T00:33:33;12.75;;;8.20;;
55350;SDS011;62194;49.480;10.986;2023-03-12T00:33:38;11.97;;;8.17;;
55350;SDS011;62194;49.480;10.986;2023-03-12T00:33:44;11.77;;;8.10;;
55350;SDS011;62194;49.480;10.986;2023-03-12T00:33:49;10.35;;;7.97;;
55350;SDS011;62194;49.480;10.986;2023-03-12T00:33:55;10.50;;;7.93;;
55350;SDS011;62194;49.480;10.986;2023-03-12T00:34:01;11.13;;;8.02;;
55350;SDS011;62194;49.480;10.986;2023-03-12T00:34:07;11.82;;;7.95;;
55350;SDS011;62194;49.480;10.986;2023-03-12T00:34:13;12.02;;;7.96;;
55350;SDS011;62194;49.480;10.986;2023-03-12T00:34:18;12.23;;;8.13;;
55350;SDS011;62194;49.480;10.986;2023-03-12T00:34:24;12.90;;;8.27;;
55350;SDS011;62194;49.480;10.986;2023-03-12T00:34:29;13.23;;;8.17;;
55350;SDS011;62194;49.480;10.986;2023-03-12T00:34:34;12.70;;;8.32;;
55350;SDS011;62194;49.480;10.986;2023-03-12T00:34:39;12.77;;;8.50;;
55350;SDS011;62194;49.480;10.986;2023-03-12T00:34:49;12.95;;;8.60;;
55350;SDS011;62194;49.480;10.986;2023-03-12T00:34:56;12.40;;;8.70;;
55350;SDS011;62194;49.480;10.986;2023-03-12T00:35:01;13.35;;;8.70;;